sensor_id;sensor_type;location;lat;lon;timestamp;temperature;humidity
19106;DHT22;9685;54.338;18.672;2023-08-08T00:01:31;16.20;99.90
19106;DHT22;9685;54.338;18.672;2023-08-08T00:03:59;16.30;99.90
19106;DHT22;9685;54.338;18.672;2023-08-08T00:06:25;16.30;99.90
19106;DHT22;9685;54.338;18.672;2023-08-08T00:08:52;16.20;99.90
19106;DHT22;9685;54.338;18.672;2023-08-08T00:11:19;16.20;99.90
19106;DHT22;9685;54.338;18.672;2023-08-08T00:13:48;16.20;99.90
19106;DHT22;9685;54.338;18.672;2023-08-08T00:16:15;16.20;99.90
19106;DHT22;9685;54.338;18.672;2023-08-08T00:18:42;16.20;99.90
19106;DHT22;9685;54.338;18.672;2023-08-08T00:21:09;16.30;99.90
19106;DHT22;9685;54.338;18.672;2023-08-08T00:23:35;16.40;99.90
19106;DHT22;9685;54.338;18.672;2023-08-08T00:26:02;16.30;99.90
19106;DHT22;9685;54.338;18.672;2023-08-08T00:28:29;16.40;99.90
19106;DHT22;9685;54.338;18.672;2023-08-08T00:30:58;16.50;99.90
19106;DHT22;9685;54.338;18.672;2023-08-08T00:33:25;16.40;99.90
19106;DHT22;9685;54.338;18.672;2023-08-08T00:35:51;16.40;99.90
19106;DHT22;9685;54.338;18.672;2023-08-08T00:38:18;16.50;99.90
19106;DHT22;9685;54.338;18.672;2023-08-08T00:40:45;16.40;99.90
19106;DHT22;9685;54.338;18.672;2023-08-08T00:43:12;16.30;99.90
19106;DHT22;9685;54.338;18.672;2023-08-08T00:45:42;16.30;99.90
19106;DHT22;9685;54.338;18.672;2023-08-08T00:48:10;16.30;99.90
19106;DHT22;9685;54.338;18.672;2023-08-08T00:50:41;16.30;99.90
19106;DHT22;9685;54.338;18.672;2023-08-08T00:53:08;16.30;99.90
19106;DHT22;9685;54.338;18.672;2023-08-08T00:55:35;16.30;99.90
19106;DHT22;9685;54.338;18.672;2023-08-08T00:58:03;16.20;99.90
19106;DHT22;9685;54.338;18.672;2023-08-08T01:00:30;16.30;99.90
19106;DHT22;9685;54.338;18.672;2023-08-08T01:02:57;16.20;99.90
19106;DHT22;9685;54.338;18.672;2023-08-08T01:05:31;16.20;99.90
19106;DHT22;9685;54.338;18.672;2023-08-08T01:08:04;16.30;99.90
19106;DHT22;9685;54.338;18.672;2023-08-08T01:10:34;16.30;99.90
19106;DHT22;9685;54.338;18.672;2023-08-08T01:13:13;16.20;99.90
19106;DHT22;9685;54.338;18.672;2023-08-08T01:15:42;16.10;99.90
19106;DHT22;9685;54.338;18.672;2023-08-08T01:18:10;16.20;99.90
19106;DHT22;9685;54.338;18.672;2023-08-08T01:20:39;16.30;99.90
19106;DHT22;9685;54.338;18.672;2023-08-08T01:23:12;16.30;99.90
19106;DHT22;9685;54.338;18.672;2023-08-08T01:25:43;16.20;99.90
19106;DHT22;9685;54.338;18.672;2023-08-08T01:28:10;16.30;99.90
19106;DHT22;9685;54.338;18.672;2023-08-08T01:30:37;16.20;99.90
19106;DHT22;9685;54.338;18.672;2023-08-08T01:33:05;16.30;99.90
19106;DHT22;9685;54.338;18.672;2023-08-08T01:35:37;16.30;99.90
19106;DHT22;9685;54.338;18.672;2023-08-08T01:38:10;16.30;99.90
19106;DHT22;9685;54.338;18.672;2023-08-08T01:40:38;16.30;99.90
19106;DHT22;9685;54.338;18.672;2023-08-08T01:43:08;16.20;99.90
19106;DHT22;9685;54.338;18.672;2023-08-08T01:45:36;16.20;99.90
19106;DHT22;9685;54.338;18.672;2023-08-08T01:48:07;16.10;99.90
19106;DHT22;9685;54.338;18.672;2023-08-08T01:50:34;16.10;99.90
19106;DHT22;9685;54.338;18.672;2023-08-08T01:53:01;16.10;99.90
19106;DHT22;9685;54.338;18.672;2023-08-08T01:55:28;16.00;99.90
19106;DHT22;9685;54.338;18.672;2023-08-08T01:57:55;16.10;99.90
19106;DHT22;9685;54.338;18.672;2023-08-08T02:00:23;16.20;99.90
19106;DHT22;9685;54.338;18.672;2023-08-08T02:02:50;16.30;99.90
19106;DHT22;9685;54.338;18.672;2023-08-08T02:05:17;16.30;99.90
19106;DHT22;9685;54.338;18.672;2023-08-08T02:07:43;16.20;99.90
19106;DHT22;9685;54.338;18.672;2023-08-08T02:10:10;16.10;99.90
19106;DHT22;9685;54.338;18.672;2023-08-08T02:12:37;16.10;99.90
19106;DHT22;9685;54.338;18.672;2023-08-08T02:15:05;16.10;99.90
19106;DHT22;9685;54.338;18.672;2023-08-08T02:17:33;16.10;99.90
19106;DHT22;9685;54.338;18.672;2023-08-08T02:20:00;16.10;99.90
19106;DHT22;9685;54.338;18.672;2023-08-08T02:22:29;16.20;99.90
19106;DHT22;9685;54.338;18.672;2023-08-08T02:24:55;16.10;99.90
19106;DHT22;9685;54.338;18.672;2023-08-08T02:27:22;16.00;99.90
19106;DHT22;9685;54.338;18.672;2023-08-08T02:29:49;16.10;99.90
19106;DHT22;9685;54.338;18.672;2023-08-08T02:32:16;16.10;99.90
19106;DHT22;9685;54.338;18.672;2023-08-08T02:34:44;16.00;99.90
19106;DHT22;9685;54.338;18.672;2023-08-08T02:37:11;16.00;99.90
19106;DHT22;9685;54.338;18.672;2023-08-08T02:39:38;15.90;99.90
19106;DHT22;9685;54.338;18.672;2023-08-08T02:42:06;15.90;99.90
19106;DHT22;9685;54.338;18.672;2023-08-08T02:44:33;15.90;99.90
19106;DHT22;9685;54.338;18.672;2023-08-08T02:47:00;16.00;99.90
19106;DHT22;9685;54.338;18.672;2023-08-08T02:49:27;16.00;99.90
19106;DHT22;9685;54.338;18.672;2023-08-08T02:51:55;16.00;99.90
19106;DHT22;9685;54.338;18.672;2023-08-08T02:54:22;16.00;99.90
19106;DHT22;9685;54.338;18.672;2023-08-08T02:56:49;16.10;99.90
19106;DHT22;9685;54.338;18.672;2023-08-08T02:59:16;16.00;99.90
19106;DHT22;9685;54.338;18.672;2023-08-08T03:01:43;16.10;99.90
19106;DHT22;9685;54.338;18.672;2023-08-08T03:04:10;16.10;99.90
19106;DHT22;9685;54.338;18.672;2023-08-08T03:06:37;16.00;99.90
19106;DHT22;9685;54.338;18.672;2023-08-08T03:09:06;16.00;99.90
19106;DHT22;9685;54.338;18.672;2023-08-08T03:11:33;16.10;99.90
19106;DHT22;9685;54.338;18.672;2023-08-08T03:14:00;16.10;99.90
19106;DHT22;9685;54.338;18.672;2023-08-08T03:16:27;16.10;99.90
19106;DHT22;9685;54.338;18.672;2023-08-08T03:18:54;16.10;99.90
19106;DHT22;9685;54.338;18.672;2023-08-08T03:21:21;16.10;99.90
19106;DHT22;9685;54.338;18.672;2023-08-08T03:23:48;16.10;99.90
19106;DHT22;9685;54.338;18.672;2023-08-08T03:26:17;16.20;99.90
19106;DHT22;9685;54.338;18.672;2023-08-08T03:28:44;16.10;99.90
19106;DHT22;9685;54.338;18.672;2023-08-08T03:31:11;16.10;99.90
19106;DHT22;9685;54.338;18.672;2023-08-08T03:33:37;16.20;99.90
19106;DHT22;9685;54.338;18.672;2023-08-08T03:36:04;16.20;99.90
19106;DHT22;9685;54.338;18.672;2023-08-08T03:38:31;16.20;99.90
19106;DHT22;9685;54.338;18.672;2023-08-08T03:40:58;16.20;99.90
19106;DHT22;9685;54.338;18.672;2023-08-08T03:43:26;16.20;99.90
19106;DHT22;9685;54.338;18.672;2023-08-08T03:45:53;16.30;99.90
19106;DHT22;9685;54.338;18.672;2023-08-08T03:48:20;16.30;99.90
19106;DHT22;9685;54.338;18.672;2023-08-08T03:50:47;16.30;99.90
19106;DHT22;9685;54.338;18.672;2023-08-08T03:53:14;16.30;99.90
19106;DHT22;9685;54.338;18.672;2023-08-08T03:55:41;16.30;99.90
19106;DHT22;9685;54.338;18.672;2023-08-08T03:58:08;16.30;99.90
19106;DHT22;9685;54.338;18.672;2023-08-08T04:00:37;16.30;99.90
19106;DHT22;9685;54.338;18.672;2023-08-08T04:03:05;16.20;99.90
19106;DHT22;9685;54.338;18.672;2023-08-08T04:05:32;16.30;99.90
19106;DHT22;9685;54.338;18.672;2023-08-08T04:07:58;16.10;99.90
19106;DHT22;9685;54.338;18.672;2023-08-08T04:10:25;16.20;99.90
19106;DHT22;9685;54.338;18.672;2023-08-08T04:12:52;16.30;99.90
19106;DHT22;9685;54.338;18.672;2023-08-08T04:15:19;16.30;99.90
19106;DHT22;9685;54.338;18.672;2023-08-08T04:17:47;16.30;99.90
19106;DHT22;9685;54.338;18.672;2023-08-08T04:20:14;16.30;99.90
19106;DHT22;9685;54.338;18.672;2023-08-08T04:22:41;16.30;99.90
19106;DHT22;9685;54.338;18.672;2023-08-08T04:25:08;16.30;99.90
19106;DHT22;9685;54.338;18.672;2023-08-08T04:27:35;16.30;99.90
19106;DHT22;9685;54.338;18.672;2023-08-08T04:30:03;16.30;99.90
19106;DHT22;9685;54.338;18.672;2023-08-08T04:32:30;16.40;99.90
19106;DHT22;9685;54.338;18.672;2023-08-08T04:34:58;16.40;99.90
19106;DHT22;9685;54.338;18.672;2023-08-08T04:37:25;16.30;99.90
19106;DHT22;9685;54.338;18.672;2023-08-08T04:39:52;16.40;99.90
19106;DHT22;9685;54.338;18.672;2023-08-08T04:42:19;16.30;99.90
19106;DHT22;9685;54.338;18.672;2023-08-08T04:44:46;16.30;99.90
19106;DHT22;9685;54.338;18.672;2023-08-08T04:47:13;16.30;99.90
19106;DHT22;9685;54.338;18.672;2023-08-08T04:49:40;16.20;99.90
19106;DHT22;9685;54.338;18.672;2023-08-08T04:52:08;16.30;99.90
19106;DHT22;9685;54.338;18.672;2023-08-08T04:54:35;16.40;99.90
19106;DHT22;9685;54.338;18.672;2023-08-08T04:57:02;16.40;99.90
19106;DHT22;9685;54.338;18.672;2023-08-08T04:59:29;16.40;99.90
19106;DHT22;9685;54.338;18.672;2023-08-08T05:01:56;16.50;99.90
19106;DHT22;9685;54.338;18.672;2023-08-08T05:04:23;16.40;99.90
19106;DHT22;9685;54.338;18.672;2023-08-08T05:06:50;16.50;99.90
19106;DHT22;9685;54.338;18.672;2023-08-08T05:09:18;16.60;99.90
19106;DHT22;9685;54.338;18.672;2023-08-08T05:11:46;16.50;99.90
19106;DHT22;9685;54.338;18.672;2023-08-08T05:14:13;16.50;99.90
19106;DHT22;9685;54.338;18.672;2023-08-08T05:16:40;16.50;99.90
19106;DHT22;9685;54.338;18.672;2023-08-08T05:19:07;16.50;99.90
19106;DHT22;9685;54.338;18.672;2023-08-08T05:21:34;16.50;99.90
19106;DHT22;9685;54.338;18.672;2023-08-08T05:24:01;16.60;99.90
19106;DHT22;9685;54.338;18.672;2023-08-08T05:26:30;16.70;99.90
19106;DHT22;9685;54.338;18.672;2023-08-08T05:28:57;16.70;99.90
19106;DHT22;9685;54.338;18.672;2023-08-08T05:31:24;16.70;99.90
19106;DHT22;9685;54.338;18.672;2023-08-08T05:33:51;16.80;99.90
19106;DHT22;9685;54.338;18.672;2023-08-08T05:36:18;16.80;99.90
19106;DHT22;9685;54.338;18.672;2023-08-08T05:38:45;16.70;99.90
19106;DHT22;9685;54.338;18.672;2023-08-08T05:41:12;16.80;99.90
19106;DHT22;9685;54.338;18.672;2023-08-08T05:43:40;16.90;99.90
19106;DHT22;9685;54.338;18.672;2023-08-08T05:46:08;16.90;99.90
19106;DHT22;9685;54.338;18.672;2023-08-08T05:48:35;17.00;99.90
19106;DHT22;9685;54.338;18.672;2023-08-08T05:51:01;17.20;99.90
19106;DHT22;9685;54.338;18.672;2023-08-08T05:53:30;17.20;99.90
19106;DHT22;9685;54.338;18.672;2023-08-08T05:55:57;17.30;99.90
19106;DHT22;9685;54.338;18.672;2023-08-08T05:58:24;17.40;99.90
19106;DHT22;9685;54.338;18.672;2023-08-08T06:00:53;17.40;99.90
19106;DHT22;9685;54.338;18.672;2023-08-08T06:03:20;17.50;99.90
19106;DHT22;9685;54.338;18.672;2023-08-08T06:05:47;17.40;99.90
19106;DHT22;9685;54.338;18.672;2023-08-08T06:08:14;17.30;99.90
19106;DHT22;9685;54.338;18.672;2023-08-08T06:10:42;17.20;99.90
19106;DHT22;9685;54.338;18.672;2023-08-08T06:13:09;17.20;99.90
19106;DHT22;9685;54.338;18.672;2023-08-08T06:15:36;17.20;99.90
19106;DHT22;9685;54.338;18.672;2023-08-08T06:18:05;17.20;99.90
19106;DHT22;9685;54.338;18.672;2023-08-08T06:20:32;17.10;99.90
19106;DHT22;9685;54.338;18.672;2023-08-08T06:22:59;17.20;99.90
19106;DHT22;9685;54.338;18.672;2023-08-08T06:25:26;17.30;99.90
19106;DHT22;9685;54.338;18.672;2023-08-08T06:27:53;17.20;99.90
19106;DHT22;9685;54.338;18.672;2023-08-08T06:30:21;17.30;99.90
19106;DHT22;9685;54.338;18.672;2023-08-08T06:32:48;17.20;99.90
19106;DHT22;9685;54.338;18.672;2023-08-08T06:35:16;17.30;99.90
19106;DHT22;9685;54.338;18.672;2023-08-08T06:37:43;17.30;99.90
19106;DHT22;9685;54.338;18.672;2023-08-08T06:40:11;17.30;99.90
19106;DHT22;9685;54.338;18.672;2023-08-08T06:42:38;17.60;99.90
19106;DHT22;9685;54.338;18.672;2023-08-08T06:45:06;17.70;99.90
19106;DHT22;9685;54.338;18.672;2023-08-08T06:47:35;17.90;99.90
19106;DHT22;9685;54.338;18.672;2023-08-08T06:50:02;18.10;99.90
19106;DHT22;9685;54.338;18.672;2023-08-08T06:52:31;18.20;98.10
19106;DHT22;9685;54.338;18.672;2023-08-08T06:54:58;18.30;95.60
19106;DHT22;9685;54.338;18.672;2023-08-08T06:57:25;18.30;95.60
19106;DHT22;9685;54.338;18.672;2023-08-08T06:59:52;18.30;95.80
19106;DHT22;9685;54.338;18.672;2023-08-08T07:02:19;18.10;94.40
19106;DHT22;9685;54.338;18.672;2023-08-08T07:04:47;18.10;95.20
19106;DHT22;9685;54.338;18.672;2023-08-08T07:07:14;18.20;94.40
19106;DHT22;9685;54.338;18.672;2023-08-08T07:09:42;18.20;93.80
19106;DHT22;9685;54.338;18.672;2023-08-08T07:12:09;18.20;93.80
19106;DHT22;9685;54.338;18.672;2023-08-08T07:14:36;18.30;94.40
19106;DHT22;9685;54.338;18.672;2023-08-08T07:17:03;18.50;93.80
19106;DHT22;9685;54.338;18.672;2023-08-08T07:19:31;18.50;93.30
19106;DHT22;9685;54.338;18.672;2023-08-08T07:21:57;18.60;94.00
19106;DHT22;9685;54.338;18.672;2023-08-08T07:24:24;18.60;94.40
19106;DHT22;9685;54.338;18.672;2023-08-08T07:26:55;18.50;93.70
19106;DHT22;9685;54.338;18.672;2023-08-08T07:29:22;18.40;92.30
19106;DHT22;9685;54.338;18.672;2023-08-08T07:31:51;18.30;91.90
19106;DHT22;9685;54.338;18.672;2023-08-08T07:34:18;18.50;94.70
19106;DHT22;9685;54.338;18.672;2023-08-08T07:36:45;18.70;93.30
19106;DHT22;9685;54.338;18.672;2023-08-08T07:39:12;18.70;92.50
19106;DHT22;9685;54.338;18.672;2023-08-08T07:41:39;18.60;92.00
19106;DHT22;9685;54.338;18.672;2023-08-08T07:44:07;18.70;91.30
19106;DHT22;9685;54.338;18.672;2023-08-08T07:46:34;18.70;91.70
19106;DHT22;9685;54.338;18.672;2023-08-08T07:49:01;18.80;91.60
19106;DHT22;9685;54.338;18.672;2023-08-08T07:51:29;18.70;90.70
19106;DHT22;9685;54.338;18.672;2023-08-08T07:53:56;18.70;90.50
19106;DHT22;9685;54.338;18.672;2023-08-08T07:56:23;18.60;90.40
19106;DHT22;9685;54.338;18.672;2023-08-08T07:58:50;18.60;90.00
19106;DHT22;9685;54.338;18.672;2023-08-08T08:01:19;18.70;90.70
19106;DHT22;9685;54.338;18.672;2023-08-08T08:03:46;18.70;91.50
19106;DHT22;9685;54.338;18.672;2023-08-08T08:06:13;18.60;89.90
19106;DHT22;9685;54.338;18.672;2023-08-08T08:08:40;18.60;90.00
19106;DHT22;9685;54.338;18.672;2023-08-08T08:11:07;18.50;89.70
19106;DHT22;9685;54.338;18.672;2023-08-08T08:13:34;18.60;88.00
19106;DHT22;9685;54.338;18.672;2023-08-08T08:16:00;18.80;89.90
19106;DHT22;9685;54.338;18.672;2023-08-08T08:18:29;19.00;90.80
19106;DHT22;9685;54.338;18.672;2023-08-08T08:20:56;19.20;90.00
19106;DHT22;9685;54.338;18.672;2023-08-08T08:23:22;19.30;86.60
19106;DHT22;9685;54.338;18.672;2023-08-08T08:25:50;19.10;84.90
19106;DHT22;9685;54.338;18.672;2023-08-08T08:28:17;18.90;82.50
19106;DHT22;9685;54.338;18.672;2023-08-08T08:30:44;19.00;84.20
19106;DHT22;9685;54.338;18.672;2023-08-08T08:33:11;18.90;83.90
19106;DHT22;9685;54.338;18.672;2023-08-08T08:35:39;18.80;84.00
19106;DHT22;9685;54.338;18.672;2023-08-08T08:38:06;18.90;85.10
19106;DHT22;9685;54.338;18.672;2023-08-08T08:40:36;19.00;85.20
19106;DHT22;9685;54.338;18.672;2023-08-08T08:43:05;19.00;85.40
19106;DHT22;9685;54.338;18.672;2023-08-08T08:45:34;19.30;86.50
19106;DHT22;9685;54.338;18.672;2023-08-08T08:48:04;19.30;83.30
19106;DHT22;9685;54.338;18.672;2023-08-08T08:50:33;19.40;82.80
19106;DHT22;9685;54.338;18.672;2023-08-08T08:53:02;19.50;83.20
19106;DHT22;9685;54.338;18.672;2023-08-08T08:55:30;19.70;82.30
19106;DHT22;9685;54.338;18.672;2023-08-08T08:57:57;19.60;79.20
19106;DHT22;9685;54.338;18.672;2023-08-08T09:00:24;19.60;80.20
19106;DHT22;9685;54.338;18.672;2023-08-08T09:02:52;19.50;77.60
19106;DHT22;9685;54.338;18.672;2023-08-08T09:05:20;19.40;76.40
19106;DHT22;9685;54.338;18.672;2023-08-08T09:07:48;19.40;74.90
19106;DHT22;9685;54.338;18.672;2023-08-08T09:10:18;19.20;74.90
19106;DHT22;9685;54.338;18.672;2023-08-08T09:12:46;19.40;79.10
19106;DHT22;9685;54.338;18.672;2023-08-08T09:15:13;19.60;76.30
19106;DHT22;9685;54.338;18.672;2023-08-08T09:17:41;19.80;76.00
19106;DHT22;9685;54.338;18.672;2023-08-08T09:20:09;19.90;77.30
19106;DHT22;9685;54.338;18.672;2023-08-08T09:22:37;19.90;76.60
19106;DHT22;9685;54.338;18.672;2023-08-08T09:25:05;20.10;75.40
19106;DHT22;9685;54.338;18.672;2023-08-08T09:27:35;20.20;77.20
19106;DHT22;9685;54.338;18.672;2023-08-08T09:30:02;20.20;78.30
19106;DHT22;9685;54.338;18.672;2023-08-08T09:32:30;20.30;78.50
19106;DHT22;9685;54.338;18.672;2023-08-08T09:34:57;20.20;76.70
19106;DHT22;9685;54.338;18.672;2023-08-08T09:37:24;20.20;74.00
19106;DHT22;9685;54.338;18.672;2023-08-08T09:39:58;20.10;74.80
19106;DHT22;9685;54.338;18.672;2023-08-08T09:42:26;19.90;72.40
19106;DHT22;9685;54.338;18.672;2023-08-08T09:44:56;19.90;72.50
19106;DHT22;9685;54.338;18.672;2023-08-08T09:47:24;19.90;73.00
19106;DHT22;9685;54.338;18.672;2023-08-08T09:49:58;20.00;73.30
19106;DHT22;9685;54.338;18.672;2023-08-08T09:52:27;20.20;74.50
19106;DHT22;9685;54.338;18.672;2023-08-08T09:54:54;20.40;73.30
19106;DHT22;9685;54.338;18.672;2023-08-08T09:57:22;20.40;71.70
19106;DHT22;9685;54.338;18.672;2023-08-08T09:59:49;20.50;72.70
19106;DHT22;9685;54.338;18.672;2023-08-08T10:02:19;20.70;72.40
19106;DHT22;9685;54.338;18.672;2023-08-08T10:04:46;20.80;72.90
19106;DHT22;9685;54.338;18.672;2023-08-08T10:07:13;21.00;72.60
19106;DHT22;9685;54.338;18.672;2023-08-08T10:09:41;21.10;72.20
19106;DHT22;9685;54.338;18.672;2023-08-08T10:12:08;21.20;72.50
19106;DHT22;9685;54.338;18.672;2023-08-08T10:14:37;21.20;71.00
19106;DHT22;9685;54.338;18.672;2023-08-08T10:17:05;21.10;72.10
19106;DHT22;9685;54.338;18.672;2023-08-08T10:19:34;21.00;71.10
19106;DHT22;9685;54.338;18.672;2023-08-08T10:22:04;21.00;68.90
19106;DHT22;9685;54.338;18.672;2023-08-08T10:24:33;21.20;70.30
19106;DHT22;9685;54.338;18.672;2023-08-08T10:27:02;21.40;71.10
19106;DHT22;9685;54.338;18.672;2023-08-08T10:29:30;21.60;71.10
19106;DHT22;9685;54.338;18.672;2023-08-08T10:31:59;21.70;71.00
19106;DHT22;9685;54.338;18.672;2023-08-08T10:34:39;21.70;72.00
19106;DHT22;9685;54.338;18.672;2023-08-08T10:37:09;21.70;71.30
19106;DHT22;9685;54.338;18.672;2023-08-08T10:39:37;21.70;71.50
19106;DHT22;9685;54.338;18.672;2023-08-08T10:42:05;21.90;69.00
19106;DHT22;9685;54.338;18.672;2023-08-08T10:44:40;21.90;70.10
19106;DHT22;9685;54.338;18.672;2023-08-08T10:47:11;22.00;71.00
19106;DHT22;9685;54.338;18.672;2023-08-08T10:49:42;22.10;69.20
19106;DHT22;9685;54.338;18.672;2023-08-08T10:52:14;22.00;67.90
19106;DHT22;9685;54.338;18.672;2023-08-08T10:54:52;21.80;69.70
19106;DHT22;9685;54.338;18.672;2023-08-08T10:57:23;21.70;67.30
19106;DHT22;9685;54.338;18.672;2023-08-08T10:59:51;22.00;66.60
19106;DHT22;9685;54.338;18.672;2023-08-08T11:02:19;22.30;67.80
19106;DHT22;9685;54.338;18.672;2023-08-08T11:04:48;22.60;68.50
19106;DHT22;9685;54.338;18.672;2023-08-08T11:07:15;23.00;92.30
19106;DHT22;9685;54.338;18.672;2023-08-08T11:09:43;23.20;68.90
19106;DHT22;9685;54.338;18.672;2023-08-08T11:12:14;22.90;65.70
19106;DHT22;9685;54.338;18.672;2023-08-08T11:14:41;22.60;64.70
19106;DHT22;9685;54.338;18.672;2023-08-08T11:17:11;22.00;59.00
19106;DHT22;9685;54.338;18.672;2023-08-08T11:19:39;21.80;58.90
19106;DHT22;9685;54.338;18.672;2023-08-08T11:22:10;21.70;59.00
19106;DHT22;9685;54.338;18.672;2023-08-08T11:24:38;21.30;56.50
19106;DHT22;9685;54.338;18.672;2023-08-08T11:27:05;20.90;55.10
19106;DHT22;9685;54.338;18.672;2023-08-08T11:29:32;20.30;54.50
19106;DHT22;9685;54.338;18.672;2023-08-08T11:32:00;19.50;56.60
19106;DHT22;9685;54.338;18.672;2023-08-08T11:34:30;19.10;68.80
19106;DHT22;9685;54.338;18.672;2023-08-08T11:36:58;19.00;70.90
19106;DHT22;9685;54.338;18.672;2023-08-08T11:39:27;18.90;72.70
19106;DHT22;9685;54.338;18.672;2023-08-08T11:41:55;18.80;69.90
19106;DHT22;9685;54.338;18.672;2023-08-08T11:44:22;18.80;71.50
19106;DHT22;9685;54.338;18.672;2023-08-08T11:46:50;19.00;77.00
19106;DHT22;9685;54.338;18.672;2023-08-08T11:49:17;19.60;75.70
19106;DHT22;9685;54.338;18.672;2023-08-08T11:51:45;20.20;75.30
19106;DHT22;9685;54.338;18.672;2023-08-08T11:54:13;20.70;76.90
19106;DHT22;9685;54.338;18.672;2023-08-08T11:56:41;21.20;74.20
19106;DHT22;9685;54.338;18.672;2023-08-08T11:59:09;21.40;74.30
19106;DHT22;9685;54.338;18.672;2023-08-08T12:01:38;21.70;76.00
19106;DHT22;9685;54.338;18.672;2023-08-08T12:04:05;21.80;73.80
19106;DHT22;9685;54.338;18.672;2023-08-08T12:06:32;22.10;75.50
19106;DHT22;9685;54.338;18.672;2023-08-08T12:09:02;22.40;75.30
19106;DHT22;9685;54.338;18.672;2023-08-08T12:11:29;22.60;75.20
19106;DHT22;9685;54.338;18.672;2023-08-08T12:14:00;22.50;73.30
19106;DHT22;9685;54.338;18.672;2023-08-08T12:16:28;22.60;74.70
19106;DHT22;9685;54.338;18.672;2023-08-08T12:18:55;22.90;75.10
19106;DHT22;9685;54.338;18.672;2023-08-08T12:21:22;23.10;73.90
19106;DHT22;9685;54.338;18.672;2023-08-08T12:23:49;23.20;73.80
19106;DHT22;9685;54.338;18.672;2023-08-08T12:26:17;23.30;72.90
19106;DHT22;9685;54.338;18.672;2023-08-08T12:28:44;23.40;74.00
19106;DHT22;9685;54.338;18.672;2023-08-08T12:31:13;23.50;73.30
19106;DHT22;9685;54.338;18.672;2023-08-08T12:33:39;23.80;73.10
19106;DHT22;9685;54.338;18.672;2023-08-08T12:36:06;23.60;72.30
19106;DHT22;9685;54.338;18.672;2023-08-08T12:38:33;23.70;72.60
19106;DHT22;9685;54.338;18.672;2023-08-08T12:41:01;23.70;72.50
19106;DHT22;9685;54.338;18.672;2023-08-08T12:43:28;23.70;72.50
19106;DHT22;9685;54.338;18.672;2023-08-08T12:45:56;23.60;70.10
19106;DHT22;9685;54.338;18.672;2023-08-08T12:48:24;23.50;69.00
19106;DHT22;9685;54.338;18.672;2023-08-08T12:50:51;23.70;70.00
19106;DHT22;9685;54.338;18.672;2023-08-08T12:53:18;23.90;68.20
19106;DHT22;9685;54.338;18.672;2023-08-08T12:55:45;24.00;69.30
19106;DHT22;9685;54.338;18.672;2023-08-08T12:58:12;24.10;92.60
19106;DHT22;9685;54.338;18.672;2023-08-08T13:00:39;24.10;68.30
19106;DHT22;9685;54.338;18.672;2023-08-08T13:03:06;24.20;67.90
19106;DHT22;9685;54.338;18.672;2023-08-08T13:05:34;24.20;68.70
19106;DHT22;9685;54.338;18.672;2023-08-08T13:08:01;24.10;68.50
19106;DHT22;9685;54.338;18.672;2023-08-08T13:10:28;24.20;66.60
19106;DHT22;9685;54.338;18.672;2023-08-08T13:12:56;24.00;67.20
19106;DHT22;9685;54.338;18.672;2023-08-08T13:15:23;24.00;66.80
19106;DHT22;9685;54.338;18.672;2023-08-08T13:17:50;23.80;64.80
19106;DHT22;9685;54.338;18.672;2023-08-08T13:20:18;23.50;90.00
19106;DHT22;9685;54.338;18.672;2023-08-08T13:22:46;23.20;63.50
19106;DHT22;9685;54.338;18.672;2023-08-08T13:25:13;23.20;62.80
19106;DHT22;9685;54.338;18.672;2023-08-08T13:27:40;23.30;64.40
19106;DHT22;9685;54.338;18.672;2023-08-08T13:30:08;23.30;63.30
19106;DHT22;9685;54.338;18.672;2023-08-08T13:32:35;23.30;64.40
19106;DHT22;9685;54.338;18.672;2023-08-08T13:35:03;23.50;62.90
19106;DHT22;9685;54.338;18.672;2023-08-08T13:37:30;23.50;63.90
19106;DHT22;9685;54.338;18.672;2023-08-08T13:39:58;23.50;61.60
19106;DHT22;9685;54.338;18.672;2023-08-08T13:42:25;23.20;60.10
19106;DHT22;9685;54.338;18.672;2023-08-08T13:44:52;23.10;59.30
19106;DHT22;9685;54.338;18.672;2023-08-08T13:47:19;23.20;60.60
19106;DHT22;9685;54.338;18.672;2023-08-08T13:49:46;23.40;61.00
19106;DHT22;9685;54.338;18.672;2023-08-08T13:52:13;23.70;62.50
19106;DHT22;9685;54.338;18.672;2023-08-08T13:54:40;23.90;61.30
19106;DHT22;9685;54.338;18.672;2023-08-08T13:57:08;23.80;61.30
19106;DHT22;9685;54.338;18.672;2023-08-08T13:59:35;24.00;62.30
19106;DHT22;9685;54.338;18.672;2023-08-08T14:02:02;24.10;62.90
19106;DHT22;9685;54.338;18.672;2023-08-08T14:04:29;24.10;61.60
19106;DHT22;9685;54.338;18.672;2023-08-08T14:06:56;24.10;61.90
19106;DHT22;9685;54.338;18.672;2023-08-08T14:09:23;24.10;61.30
19106;DHT22;9685;54.338;18.672;2023-08-08T14:11:50;24.20;60.20
19106;DHT22;9685;54.338;18.672;2023-08-08T14:14:18;24.30;62.40
19106;DHT22;9685;54.338;18.672;2023-08-08T14:16:45;23.90;61.00
19106;DHT22;9685;54.338;18.672;2023-08-08T14:19:19;23.60;60.60
19106;DHT22;9685;54.338;18.672;2023-08-08T14:21:46;23.20;60.00
19106;DHT22;9685;54.338;18.672;2023-08-08T14:24:13;23.10;59.00
19106;DHT22;9685;54.338;18.672;2023-08-08T14:26:40;22.90;59.10
19106;DHT22;9685;54.338;18.672;2023-08-08T14:29:07;23.00;58.80
19106;DHT22;9685;54.338;18.672;2023-08-08T14:31:36;22.80;58.10
19106;DHT22;9685;54.338;18.672;2023-08-08T14:34:03;22.70;58.10
19106;DHT22;9685;54.338;18.672;2023-08-08T14:36:30;22.40;56.30
19106;DHT22;9685;54.338;18.672;2023-08-08T14:38:57;22.10;54.60
19106;DHT22;9685;54.338;18.672;2023-08-08T14:41:24;22.00;54.70
19106;DHT22;9685;54.338;18.672;2023-08-08T14:43:51;22.00;54.70
19106;DHT22;9685;54.338;18.672;2023-08-08T14:46:18;22.00;54.80
19106;DHT22;9685;54.338;18.672;2023-08-08T14:48:46;22.00;55.50
19106;DHT22;9685;54.338;18.672;2023-08-08T14:51:13;22.00;55.00
19106;DHT22;9685;54.338;18.672;2023-08-08T14:53:42;22.10;55.80
19106;DHT22;9685;54.338;18.672;2023-08-08T14:56:09;22.20;56.90
19106;DHT22;9685;54.338;18.672;2023-08-08T14:58:36;22.40;57.80
19106;DHT22;9685;54.338;18.672;2023-08-08T15:01:03;22.50;58.20
19106;DHT22;9685;54.338;18.672;2023-08-08T15:03:29;22.50;58.00
19106;DHT22;9685;54.338;18.672;2023-08-08T15:05:58;22.40;58.30
19106;DHT22;9685;54.338;18.672;2023-08-08T15:08:25;22.20;56.00
19106;DHT22;9685;54.338;18.672;2023-08-08T15:10:52;22.20;57.80
19106;DHT22;9685;54.338;18.672;2023-08-08T15:13:19;21.90;56.30
19106;DHT22;9685;54.338;18.672;2023-08-08T15:15:46;22.00;59.00
19106;DHT22;9685;54.338;18.672;2023-08-08T15:18:12;22.10;58.90
19106;DHT22;9685;54.338;18.672;2023-08-08T15:20:40;22.40;60.90
19106;DHT22;9685;54.338;18.672;2023-08-08T15:23:08;22.70;62.20
19106;DHT22;9685;54.338;18.672;2023-08-08T15:25:36;22.90;62.40
19106;DHT22;9685;54.338;18.672;2023-08-08T15:28:03;22.90;63.30
19106;DHT22;9685;54.338;18.672;2023-08-08T15:30:30;22.80;62.80
19106;DHT22;9685;54.338;18.672;2023-08-08T15:32:57;22.60;60.80